Minerva Anna — SVNP — position and weather

sailwx.info

Track history (hours):
 
Tides and Currents Weather Stations Pressure Air Temp Water Temp Dewpoint Dewpoint Depression Visibility Wind Speed Wind Dir Waves Ship Positions

Minerva Anna

Last reported at 2014-Oct-30 00:21 UTC. Time now 2014-Oct-30 16:38 UTC.
Position N 39°34' W 010°59'.

Length 183 m; draft 7.8 m.

Type: Ship. MMSI: 240729000.

Date/timePositionNaut miles runAvg speedWind from/ knotsBaromVisibWave heightAir tempDewpointWater temp
2014-Oct-30 00:21N 39°34' W 010°59'2111.4
2014-Oct-29 22:32N 39°14' W 011°05'1311.7
2014-Oct-29 21:25N 39°02' W 011°08'1011.8
2014-Oct-29 20:33N 38°52' W 011°13'1211.9
2014-Oct-29 19:33N 38°40' W 011°16'1211.9
2014-Oct-29 18:33N 38°29' W 011°20'1211.9
2014-Oct-29 17:33N 38°17' W 011°23'1211.6
2014-Oct-29 16:32N 38°06' W 011°27'1111.6
2014-Oct-29 15:33N 37°55' W 011°30'2311.3
2014-Oct-29 13:31N 37°32' W 011°37'1110.9
2014-Oct-29 12:33N 37°22' W 011°40'36211.3
2014-Oct-28 04:31N 31°39' W 013°57'  
2014-Oct-24 19:05N 28°08' W 015°25'210 8.9
2014-Oct-23 19:27N 31°31' W 014°20'10012.4
2014-Oct-23 11:21N 33°08' W 013°51'1012.8
2014-Oct-23 10:33N 33°18' W 013°48'1312.7
2014-Oct-23 09:33N 33°30' W 013°44'1312.8
2014-Oct-23 08:33N 33°43' W 013°40'1312.7
2014-Oct-23 07:33N 33°55' W 013°36'1612.3
2014-Oct-23 06:14N 34°11' W 013°31'812.1
2014-Oct-23 05:33N 34°19' W 013°29'1212.1
2014-Oct-23 04:33N 34°30' W 013°25'1212.1
2014-Oct-23 03:33N 34°42' W 013°22'1212.2
2014-Oct-23 02:32N 34°54' W 013°18'1212.3
2014-Oct-23 01:32N 35°06' W 013°14'6212.4
2014-Oct-22 20:33N 36°06' W 012°55'1212.2
2014-Oct-22 19:33N 36°18' W 012°52'3611.9
2014-Oct-22 16:32N 36°52' W 012°40'1211.9
2014-Oct-22 15:33N 37°04' W 012°37'1211.6
2014-Oct-22 14:33N 37°15' W 012°33'1111.4
2014-Oct-22 13:33N 37°26' W 012°29'1111.1
2014-Oct-22 12:33N 37°37' W 012°26'1111.2
2014-Oct-22 11:33N 37°48' W 012°22'1111.2
2014-Oct-22 10:33N 37°58' W 012°19'1211.7
2014-Oct-22 09:33N 38°10' W 012°15'1212.1
2014-Oct-22 08:33N 38°22' W 012°11'1212.2
2014-Oct-22 07:33N 38°33' W 012°07'1212.3
2014-Oct-22 06:33N 38°45' W 012°04'1212.4
2014-Oct-22 05:33N 38°57' W 011°59'1312.7
2014-Oct-22 04:33N 39°10' W 011°55'1312.6
2014-Oct-22 03:33N 39°22' W 011°51'1212.2
2014-Oct-22 02:33N 39°34' W 011°47'1211.8
2014-Oct-22 01:33N 39°45' W 011°43'1211.4
2014-Oct-22 00:32N 39°56' W 011°40'1311.4
2014-Oct-21 23:22N 40°09' W 011°36'911.2
2014-Oct-21 22:33N 40°18' W 011°33'1411.2
2014-Oct-21 21:18N 40°31' W 011°28'  
Track history (hours):
 
Tides and Currents Weather Stations Pressure Air Temp Water Temp Dewpoint Dewpoint Depression Visibility Wind Speed Wind Dir Waves Ship Positions

Minerva Anna

Last reported at 2014-Oct-30 00:21 UTC. Time now 2014-Oct-30 16:38 UTC.
Position N 39°34' W 010°59'.

Length 183 m; draft 7.8 m.

Type: Ship. MMSI: 240729000.

Date/timePositionNaut miles runAvg speedWind from/ knotsBaromVisibWave heightAir tempDewpointWater temp
2014-Oct-30 00:21N 39°34' W 010°59'2111.4
2014-Oct-29 22:32N 39°14' W 011°05'1311.7
2014-Oct-29 21:25N 39°02' W 011°08'1011.8
2014-Oct-29 20:33N 38°52' W 011°13'1211.9
2014-Oct-29 19:33N 38°40' W 011°16'1211.9
2014-Oct-29 18:33N 38°29' W 011°20'1211.9
2014-Oct-29 17:33N 38°17' W 011°23'1211.6
2014-Oct-29 16:32N 38°06' W 011°27'1111.6
2014-Oct-29 15:33N 37°55' W 011°30'2311.3
2014-Oct-29 13:31N 37°32' W 011°37'1110.9
2014-Oct-29 12:33N 37°22' W 011°40'36211.3
2014-Oct-28 04:31N 31°39' W 013°57'  
2014-Oct-24 19:05N 28°08' W 015°25'210 8.9
2014-Oct-23 19:27N 31°31' W 014°20'10012.4
2014-Oct-23 11:21N 33°08' W 013°51'1012.8
2014-Oct-23 10:33N 33°18' W 013°48'1312.7
2014-Oct-23 09:33N 33°30' W 013°44'1312.8
2014-Oct-23 08:33N 33°43' W 013°40'1312.7
2014-Oct-23 07:33N 33°55' W 013°36'1612.3
2014-Oct-23 06:14N 34°11' W 013°31'812.1
2014-Oct-23 05:33N 34°19' W 013°29'1212.1
2014-Oct-23 04:33N 34°30' W 013°25'1212.1
2014-Oct-23 03:33N 34°42' W 013°22'1212.2
2014-Oct-23 02:32N 34°54' W 013°18'1212.3
2014-Oct-23 01:32N 35°06' W 013°14'6212.4
2014-Oct-22 20:33N 36°06' W 012°55'1212.2
2014-Oct-22 19:33N 36°18' W 012°52'3611.9
2014-Oct-22 16:32N 36°52' W 012°40'1211.9
2014-Oct-22 15:33N 37°04' W 012°37'1211.6
2014-Oct-22 14:33N 37°15' W 012°33'1111.4
2014-Oct-22 13:33N 37°26' W 012°29'1111.1
2014-Oct-22 12:33N 37°37' W 012°26'1111.2
2014-Oct-22 11:33N 37°48' W 012°22'1111.2
2014-Oct-22 10:33N 37°58' W 012°19'1211.7
2014-Oct-22 09:33N 38°10' W 012°15'1212.1
2014-Oct-22 08:33N 38°22' W 012°11'1212.2
2014-Oct-22 07:33N 38°33' W 012°07'1212.3
2014-Oct-22 06:33N 38°45' W 012°04'1212.4
2014-Oct-22 05:33N 38°57' W 011°59'1312.7
2014-Oct-22 04:33N 39°10' W 011°55'1312.6
2014-Oct-22 03:33N 39°22' W 011°51'1212.2
2014-Oct-22 02:33N 39°34' W 011°47'1211.8
2014-Oct-22 01:33N 39°45' W 011°43'1211.4
2014-Oct-22 00:32N 39°56' W 011°40'1311.4
2014-Oct-21 23:22N 40°09' W 011°36'911.2
2014-Oct-21 22:33N 40°18' W 011°33'1411.2
2014-Oct-21 21:18N 40°31' W 011°28'  

Dump ship's entire track history